Beech Creek, Kentucky
Current Conditions -  °F | °C
As of 8:15 AM on Thursday 29 Jan 2015 (Local Time) from K2I0 Reporting Station
Clear Clear  
Wind Chill: 55°   Ceiling: Unl
Heat Index: 55°   Visibility: 10mi
Dew Point: 40°   Wind: 12mph
Humidity: 56%   Direction: 230°SW
Pressure: 29.93"   Gusts: 20mph
Location:  37.18°N, 87.06°W
Report Text: K2I0 291415Z AUTO 23010G17KT 10SM CLR 13/04 A2993 RMK AO2 T01300044
Loading
Personal Weather Stations






























Interactive Weather Map New forecast layout! Learn more

10-Day Weather Forecast

Advertisements
Track Severe Weather on mobile